Time;durP1;ratioP1;P1;durP2;ratioP2;P2;SDS_P1;SDS_P2;PMS_P1;PMS_P2;Temp;Humidity;BMP_temperature;BMP_pressure;BME280_temperature;BME280_humidity;BME280_pressure;Samples;Min_cycle;Max_cycle;Signal;HPM_P1;HPM_P2
2023/04/01 00:01:55;;;;;;;0.50;0.50;;;;;;;10.54;83.79;98471.22;4957558;28;20243;-77
2023/04/01 00:04:22;;;;;;;0.10;0.10;;;;;;;10.57;83.81;98463.22;4975725;28;20292;-76
2023/04/01 00:06:51;;;;;;;0.10;0.10;;;;;;;10.60;83.15;98451.72;4963425;28;20319;-76
2023/04/01 00:09:19;;;;;;;0.10;0.10;;;;;;;10.55;83.43;98438.59;4978108;28;20283;-76
2023/04/01 00:11:46;;;;;;;0.10;0.10;;;;;;;10.51;83.48;98471.28;4977741;28;20244;-76
2023/04/01 00:14:14;;;;;;;0.10;0.10;;;;;;;10.58;83.27;98428.81;4981159;28;20708;-77
2023/04/01 00:16:41;;;;;;;0.10;0.10;;;;;;;10.61;82.81;98433.19;4976920;28;20236;-77
2023/04/01 00:19:09;;;;;;;0.10;0.10;;;;;;;10.69;82.30;98427.72;4971219;28;20264;-76
2023/04/01 00:21:36;;;;;;;0.10;0.10;;;;;;;10.62;82.49;98412.91;4974066;28;20225;-76
2023/04/01 00:24:04;;;;;;;0.10;0.10;;;;;;;10.51;82.99;98429.88;4974883;28;20304;-76
2023/04/01 00:26:31;;;;;;;0.10;0.10;;;;;;;10.74;82.46;98445.19;4972155;28;20693;-75
2023/04/01 00:29:00;;;;;;;0.20;0.20;;;;;;;10.70;82.00;98406.53;4974675;28;20325;-75
2023/04/01 00:31:27;;;;;;;0.10;0.10;;;;;;;10.59;82.56;98427.06;4972181;28;20330;-75
2023/04/01 00:33:56;;;;;;;0.10;0.10;;;;;;;10.64;82.54;98424.31;4941011;28;20241;-75
2023/04/01 00:36:23;;;;;;;0.10;0.10;;;;;;;10.70;82.00;98410.94;4974723;28;20268;-76
2023/04/01 00:38:51;;;;;;;0.32;0.32;;;;;;;10.78;81.43;98401.94;4974110;28;20413;-77
2023/04/01 00:41:20;;;;;;;0.10;0.10;;;10.60;99.90;;;10.68;81.78;98400.41;4971784;28;20276;-76
2023/04/01 00:43:51;;;;;;;0.00;0.00;;;10.60;99.90;;;10.57;82.44;98384.81;4975063;28;20244;-76
2023/04/01 00:46:19;;;;;;;0.00;0.00;;;10.50;99.90;;;10.53;82.80;98393.72;4978984;28;20240;-76
2023/04/01 00:48:54;;;;;;;0.10;0.10;;;10.40;99.90;;;10.48;83.14;98413.22;4972627;28;20310;-77
2023/04/01 00:51:29;;;;;;;0.10;0.10;;;10.50;99.90;;;10.56;82.84;98413.91;4972482;28;20232;-77
2023/04/01 00:53:59;;;;;;;0.05;0.05;;;10.40;99.90;;;10.39;83.61;98410.75;4958368;28;20294;-76
2023/04/01 00:56:32;;;;;;;0.10;0.10;;;10.30;99.90;;;10.42;84.05;98416.88;4973739;28;20236;-76
2023/04/01 00:59:05;;;;;;;0.08;0.08;;;10.30;99.90;;;10.29;84.83;98425.94;4957732;28;20256;-76
2023/04/01 01:01:33;;;;;;;0.10;0.10;;;10.30;99.90;;;10.41;84.09;98420.41;4973789;28;20295;-76
2023/04/01 01:04:02;;;;;;;0.10;0.10;;;;;;;10.44;83.97;98408.91;4957574;28;20268;-75
2023/04/01 01:06:58;;;;;;;0.10;0.10;;;10.40;99.90;;;10.36;83.64;98395.84;4975600;28;20236;-76
2023/04/01 01:09:35;;;;;;;0.10;0.10;;;10.30;99.90;;;10.34;84.33;98396.78;4973600;28;20260;-76
2023/04/01 01:12:25;;;;;;;4.03;1.60;;;10.50;99.90;;;10.63;82.62;98386.44;4953438;28;20275;-75
2023/04/01 01:15:16;;;;;;;0.10;0.10;;;10.40;99.90;;;10.44;82.71;98366.63;4937802;28;20241;-76
2023/04/01 01:17:49;;;;;;;0.10;0.10;;;;;;;10.46;83.06;98370.97;4971591;28;20237;-75
2023/04/01 01:20:34;;;;;;;0.05;0.05;;;10.40;99.90;;;10.46;82.64;98367.47;4971331;28;20264;-75
2023/04/01 01:23:07;;;;;;;0.17;0.17;;;10.40;99.90;;;10.45;82.77;98369.25;4970533;28;20241;-75
2023/04/01 01:25:34;;;;;;;2.38;1.48;;;;;;;10.43;83.21;98362.25;4972007;28;20225;-75
2023/04/01 01:28:39;;;;;;;0.40;0.40;;;10.40;99.90;;;10.49;82.80;98359.47;4976916;28;20328;-75
2023/04/01 01:31:26;;;;;;;0.20;0.20;;;10.40;99.90;;;10.49;82.82;98362.09;4972622;28;20233;-75
2023/04/01 01:34:12;;;;;;;0.32;0.32;;;;;;;10.60;82.17;98354.78;4948491;28;20268;-74
2023/04/01 01:36:42;;;;;;;0.40;0.40;;;10.50;99.90;;;10.57;82.04;98331.09;4968370;28;20238;-76
2023/04/01 01:39:10;;;;;;;2.20;1.73;;;10.50;99.90;;;10.57;82.01;98337.25;4955551;28;20248;-75
2023/04/01 01:41:41;;;;;;;0.50;0.50;;;10.40;99.90;;;10.51;82.36;98340.03;4945261;28;20241;-75
2023/04/01 01:44:11;;;;;;;0.70;0.70;;;10.40;99.90;;;10.42;82.79;98334.09;4947479;28;20261;-76
2023/04/01 01:46:41;;;;;;;0.68;0.68;;;10.40;99.90;;;10.48;83.18;98345.38;4952806;28;20237;-76
2023/04/01 01:49:11;;;;;;;0.50;0.50;;;10.30;99.90;;;10.36;83.58;98335.06;4958713;28;20237;-76
2023/04/01 01:51:39;;;;;;;1.15;1.00;;;;;;;10.30;84.24;98355.50;4952628;28;20255;-76
2023/04/01 01:54:07;;;;;;;0.70;0.70;;;;;;;10.22;85.09;98364.44;4970143;28;20225;-76
2023/04/01 01:56:35;;;;;;;0.70;0.70;;;10.20;99.90;;;10.25;85.42;98385.50;4961435;28;20236;-75
2023/04/01 01:59:10;;;;;;;0.60;0.60;;;10.30;99.90;;;10.35;85.43;98387.94;4956736;28;20268;-75
2023/04/01 02:01:42;;;;;;;0.85;0.77;;;10.20;99.90;;;10.26;86.11;98389.03;4954126;28;20268;-76
2023/04/01 02:04:13;;;;;;;0.10;0.10;;;10.20;99.90;;;10.26;86.41;98403.09;4938641;28;20257;-76
2023/04/01 02:06:47;;;;;;;0.10;0.10;;;10.20;99.90;;;10.22;86.52;98397.91;4955496;28;20239;-76
2023/04/01 02:09:15;;;;;;;0.60;0.60;;;;;;;10.08;87.49;98408.75;4947406;28;20322;-77
2023/04/01 02:12:06;;;;;;;0.70;0.70;;;10.10;99.90;;;10.15;87.36;98406.84;4956826;28;20260;-76
2023/04/01 02:14:41;;;;;;;1.55;1.30;;;10.00;99.90;;;10.04;87.98;98412.34;4952507;28;20257;-77
2023/04/01 02:17:19;;;;;;;0.60;0.60;;;10.10;99.90;;;10.16;87.54;98409.47;4967839;28;20689;-75
2023/04/01 02:19:48;;;;;;;0.63;0.63;;;;;;;10.08;87.61;98403.47;4965116;28;20324;-76
2023/04/01 02:22:22;;;;;;;0.50;0.50;;;10.10;99.90;;;10.11;87.92;98399.91;4956798;28;20312;-75
2023/04/01 02:24:54;;;;;;;0.38;0.38;;;10.00;99.90;;;10.04;88.14;98407.06;4947802;28;20281;-76
2023/04/01 02:27:22;;;;;;;0.73;0.70;;;;;;;10.02;88.48;98415.94;4962276;28;20233;-76
2023/04/01 02:29:50;;;;;;;0.80;0.80;;;10.00;99.90;;;10.04;88.15;98419.41;4953915;28;20259;-75
2023/04/01 02:32:19;;;;;;;1.17;1.05;;;10.00;99.90;;;10.09;88.15;98414.91;4937342;28;20333;-75
2023/04/01 02:34:48;;;;;;;1.60;1.20;;;10.50;99.90;;;9.91;89.15;98424.06;4971028;28;20718;-75
2023/04/01 02:37:15;;;;;;;1.00;0.90;;;;;;;9.82;90.08;98432.19;4953704;28;20257;-76
2023/04/01 02:39:43;;;;;;;1.38;1.13;;;;;;;9.68;91.31;98450.94;4951947;28;20315;-75
2023/04/01 02:42:10;;;;;;;1.00;0.90;;;;;;;9.62;92.57;98462.47;4970695;28;20226;-75
2023/04/01 02:44:38;;;;;;;1.25;1.10;;;;;;;9.61;93.47;98478.34;4972299;28;20264;-75
2023/04/01 02:47:05;;;;;;;1.23;1.10;;;;;;;9.62;94.07;98486.22;4953098;28;20241;-75
2023/04/01 02:49:33;;;;;;;1.77;1.30;;;;;;;9.70;94.15;98494.00;4970914;28;20236;-76
2023/04/01 02:52:00;;;;;;;1.55;1.20;;;;;;;9.83;93.34;98484.06;4969976;28;20233;-77
2023/04/01 02:54:27;;;;;;;0.70;0.70;;;;;;;9.80;93.81;98485.00;4972529;28;20320;-77
2023/04/01 02:56:55;;;;;;;0.77;0.77;;;;;;;9.94;92.57;98476.81;4970131;28;20280;-76
2023/04/01 02:59:22;;;;;;;0.70;0.70;;;;;;;9.84;93.32;98473.50;4984708;28;20231;-77
2023/04/01 03:01:50;;;;;;;0.50;0.50;;;;;;;9.81;94.04;98488.50;4948973;28;20243;-75
2023/04/01 03:04:17;;;;;;;0.35;0.35;;;;;;;9.75;94.84;98499.19;4969846;28;20265;-75
2023/04/01 03:06:44;;;;;;;0.20;0.20;;;;;;;9.70;95.75;98520.38;4968209;28;20295;-75
2023/04/01 03:09:12;;;;;;;0.20;0.20;;;;;;;9.67;96.68;98528.34;4956274;28;20756;-75
2023/04/01 03:11:40;;;;;;;0.30;0.30;;;;;;;9.66;97.55;98531.91;4958672;28;20292;-75
2023/04/01 03:14:08;;;;;;;0.30;0.30;;;;;;;9.80;96.79;98535.16;4968115;28;20308;-75
2023/04/01 03:16:35;;;;;;;0.25;0.25;;;;;;;9.65;97.33;98526.66;4976558;28;20367;-73
2023/04/01 03:19:02;;;;;;;0.30;0.30;;;;;;;9.55;98.48;98545.28;4967491;28;20300;-73
2023/04/01 03:21:30;;;;;;;0.10;0.10;;;;;;;9.52;99.14;98549.75;4967940;28;20276;-74
2023/04/01 03:23:58;;;;;;;0.10;0.10;;;;;;;9.51;99.91;98546.22;4971154;28;20292;-72
2023/04/01 03:26:26;;;;;;;0.10;0.10;;;;;;;9.46;100.00;98553.34;4953538;28;20228;-73
2023/04/01 03:28:55;;;;;;;0.20;0.20;;;;;;;9.52;100.00;98552.38;4973444;28;20286;-73
2023/04/01 03:31:22;;;;;;;0.30;0.30;;;;;;;9.58;99.77;98558.41;4973266;28;20245;-73
2023/04/01 03:33:50;;;;;;;0.63;0.47;;;;;;;9.66;98.67;98544.22;4972665;28;20232;-76
2023/04/01 03:36:18;;;;;;;0.20;0.20;;;;;;;9.67;98.17;98538.91;4967763;28;20658;-77
2023/04/01 03:38:46;;;;;;;0.20;0.20;;;;;;;9.74;97.34;98537.91;4968241;28;20271;-76
2023/04/01 03:41:15;;;;;;;0.10;0.10;;;9.70;99.90;;;9.78;96.22;98517.59;4969856;28;20229;-77
2023/04/01 03:43:43;;;;;;;0.17;0.17;;;;;;;9.72;96.44;98513.31;4966700;28;20295;-76
2023/04/01 03:46:11;;;;;;;0.10;0.10;;;;;;;9.74;95.98;98519.44;4966247;28;20253;-76
2023/04/01 03:48:38;;;;;;;0.10;0.10;;;;;;;9.71;96.08;98502.78;4965087;28;20627;-77
2023/04/01 03:51:08;;;;;;;0.00;0.00;;;9.80;99.90;;;9.83;95.03;98497.28;4957271;28;20257;-76
2023/04/01 03:53:36;;;;;;;0.10;0.10;;;;;;;9.82;94.56;98480.56;4970673;28;20237;-76
2023/04/01 03:56:07;;;;;;;0.17;0.17;;;9.70;99.90;;;9.74;94.40;98469.28;4970259;28;20241;-76
2023/04/01 03:58:36;;;;;;;0.10;0.10;;;9.60;99.90;;;9.70;93.94;98457.03;4958475;28;20280;-77
2023/04/01 04:01:12;;;;;;;0.10;0.10;;;;;;;9.80;92.74;98449.81;4978456;28;20254;-76
2023/04/01 04:03:40;;;;;;;0.10;0.10;;;;;;;9.81;92.32;98447.16;4972719;28;20314;-76
2023/04/01 04:06:12;;;;;;;0.10;0.10;;;9.70;99.90;;;9.71;92.74;98448.22;4972826;28;20271;-77
2023/04/01 04:08:39;;;;;;;3.30;1.92;;;;;;;9.88;92.05;98438.22;5049361;23;20253;-79
2023/04/01 04:11:07;;;;;;;0.10;0.10;;;9.70;99.90;;;9.69;92.73;98436.84;4973436;28;20240;-79
2023/04/01 04:13:35;;;;;;;0.10;0.10;;;;;;;9.87;91.66;98433.84;4993005;28;20696;-78
2023/04/01 04:16:03;;;;;;;0.10;0.10;;;9.50;99.90;;;9.79;92.14;98432.25;4991952;28;20731;-79
2023/04/01 04:18:31;;;;;;;0.10;0.10;;;;;;;9.73;92.33;98427.09;5000613;28;20228;-79
2023/04/01 04:20:58;;;;;;;0.00;0.00;;;;;;;9.87;91.88;98425.91;4994002;28;20248;-78
2023/04/01 04:23:26;;;;;;;0.00;0.00;;;;;;;9.92;90.99;98412.63;4994961;28;20259;-77
2023/04/01 04:26:06;;;;;;;0.10;0.10;;;9.90;99.90;;;9.93;90.36;98396.75;4976904;28;20290;-76
2023/04/01 04:28:34;;;;;;;0.10;0.10;;;;;;;9.87;90.81;98398.66;4990005;28;20267;-76
2023/04/01 04:31:04;;;;;;;0.10;0.10;;;9.90;99.90;;;9.97;90.15;98399.31;4991548;28;20315;-75
2023/04/01 04:33:32;;;;;;;0.10;0.10;;;;;;;9.90;90.29;98393.31;4992574;28;20240;-76
2023/04/01 04:36:00;;;;;;;0.10;0.10;;;9.80;99.90;;;9.88;90.59;98408.31;4988858;28;20252;-76
2023/04/01 04:38:27;;;;;;;0.10;0.10;;;;;;;9.82;90.83;98406.66;4977382;28;20291;-77
2023/04/01 04:40:55;;;;;;;0.10;0.10;;;;;;;9.84;91.13;98423.34;4990590;28;20301;-76
2023/04/01 04:43:23;;;;;;;0.10;0.10;;;;;;;9.83;91.70;98433.91;4992673;28;20312;-77
2023/04/01 04:45:50;;;;;;;15.80;1.48;;;;;;;9.84;91.48;98433.88;4992498;28;20225;-77
2023/04/01 04:48:20;;;;;;;0.40;0.40;;;;;;;9.92;91.14;98437.25;4992068;28;20232;-78
2023/04/01 04:50:49;;;;;;;0.40;0.40;;;9.80;99.90;;;9.79;92.30;98437.53;4993225;28;20271;-78
2023/04/01 04:53:18;;;;;;;0.30;0.30;;;9.70;99.90;;;9.78;92.36;98455.13;4993466;28;20247;-78
2023/04/01 04:55:50;;;;;;;0.10;0.10;;;9.60;99.90;;;9.72;93.32;98473.72;4992052;28;20242;-78
2023/04/01 04:58:17;;;;;;;0.10;0.10;;;9.60;99.90;;;9.73;94.00;98483.38;4992852;28;20291;-77
2023/04/01 05:00:45;;;;;;;0.08;0.08;;;9.60;99.90;;;9.71;94.47;98495.72;4991410;28;20287;-77
2023/04/01 05:03:13;;;;;;;0.10;0.10;;;;;;;9.74;94.75;98505.38;4991022;28;20302;-78
2023/04/01 05:05:47;;;;;;;0.10;0.10;;;;;;;9.71;95.05;98505.41;4989846;28;20227;-77
2023/04/01 05:10:54;;;;;;;0.10;0.10;;;;;;;9.57;97.05;98517.09;5000368;28;20224;-75
2023/04/01 05:13:21;;;;;;;0.10;0.10;;;;;;;9.56;97.99;98539.09;5003130;28;20314;-76
2023/04/01 05:15:49;;;;;;;0.20;0.20;;;;;;;9.52;98.83;98541.81;5003327;28;20318;-75
2023/04/01 05:18:16;;;;;;;0.00;0.00;;;;;;;9.58;98.25;98539.06;4991485;28;20641;-75
2023/04/01 05:20:52;;;;;;;0.10;0.10;;;9.50;99.90;;;9.56;99.02;98538.22;4986375;28;20322;-75
2023/04/01 05:23:21;;;;;;;0.10;0.10;;;9.40;99.90;;;9.52;99.30;98540.06;4984746;28;20255;-76
2023/04/01 05:25:50;;;;;;;0.10;0.10;;;9.60;99.90;;;9.66;98.46;98545.09;4985549;28;20250;-72
2023/04/01 05:28:18;;;;;;;0.10;0.10;;;;;;;9.72;97.29;98510.66;4991146;28;20239;-75
2023/04/01 05:30:46;;;;;;;0.10;0.10;;;;;;;9.62;97.68;98517.00;4971480;28;20295;-76
2023/04/01 05:33:13;;;;;;;0.10;0.10;;;;;;;9.64;97.37;98512.56;4985889;28;20253;-75
2023/04/01 05:35:41;;;;;;;0.10;0.10;;;;;;;9.50;98.76;98519.88;4988203;28;20248;-79
2023/04/01 05:38:08;;;;;;;0.10;0.10;;;9.40;99.90;;;9.42;100.00;98530.56;4986884;28;20243;-74
2023/04/01 05:40:35;;;;;;;0.10;0.10;;;;;;;9.39;100.00;98535.00;4988332;28;20256;-74
2023/04/01 05:43:03;;;;;;;0.10;0.10;;;;;;;9.34;100.00;98552.69;4969278;28;20294;-77
2023/04/01 05:45:30;;;;;;;0.10;0.10;;;;;;;9.43;100.00;98545.47;4982256;28;20308;-76
2023/04/01 05:47:59;;;;;;;0.10;0.10;;;9.40;99.90;;;9.40;100.00;98539.38;4982454;28;20233;-78
2023/04/01 05:50:26;;;;;;;0.10;0.10;;;;;;;9.34;100.00;98552.69;4989076;28;20236;-75
2023/04/01 05:52:54;;;;;;;0.00;0.00;;;;;;;9.33;100.00;98553.56;4990387;28;20331;-74
2023/04/01 05:55:21;;;;;;;0.10;0.10;;;;;;;9.31;100.00;98553.59;4985206;28;20316;-76
2023/04/01 05:57:49;;;;;;;0.10;0.10;;;;;;;9.34;100.00;98556.19;4973720;28;20334;-75
2023/04/01 06:00:17;;;;;;;0.10;0.10;;;9.30;99.90;;;9.36;100.00;98561.44;4991488;28;20298;-76
2023/04/01 06:02:44;;;;;;;0.10;0.10;;;9.40;99.90;;;9.45;100.00;98551.59;4991143;28;20264;-74
2023/04/01 06:05:22;;;;;;;0.10;0.10;;;9.40;99.90;;;9.49;100.00;98548.03;4991592;28;20233;-75
2023/04/01 06:07:57;;;;;;;0.10;0.10;;;9.50;99.90;;;9.47;100.00;98538.38;4990340;28;20704;-75
2023/04/01 06:10:48;;;;;;;0.10;0.10;;;9.50;99.90;;;9.48;100.00;98534.84;4984613;28;20255;-74
2023/04/01 06:13:58;;;;;;;0.10;0.10;;;9.40;99.90;;;9.42;100.00;98534.97;4976750;28;20233;-75
2023/04/01 06:16:54;;;;;;;0.10;0.10;;;9.40;99.90;;;9.42;100.00;98534.97;4981952;28;20229;-74
2023/04/01 06:19:45;;;;;;;0.10;0.10;;;9.40;99.90;;;9.54;99.72;98534.75;4986264;28;20240;-74
2023/04/01 06:23:19;;;;;;;1.38;0.95;;;9.60;99.90;;;9.57;98.28;98510.94;4973370;28;20291;-75
2023/04/01 06:26:01;;;;;;;0.10;0.10;;;9.50;99.90;;;9.58;97.42;98502.13;4942917;28;20237;-76
2023/04/01 06:28:40;;;;;;;0.10;0.10;;;9.40;99.90;;;9.49;97.71;98494.38;4982950;28;20328;-76
2023/04/01 06:31:21;;;;;;;0.10;0.10;;;9.60;99.90;;;9.57;96.46;98493.34;4991005;28;20318;-75
2023/04/01 06:33:55;;;;;;;0.10;0.10;;;;;;;9.53;96.74;98496.94;4990181;28;20259;-74
2023/04/01 06:36:34;;;;;;;0.05;0.05;;;9.50;99.90;;;9.52;97.50;98510.16;4985746;28;20290;-74
2023/04/01 06:39:06;;;;;;;0.10;0.10;;;;;;;9.54;97.70;98517.16;4988961;28;20276;-74
2023/04/01 06:41:55;;;;;;;0.10;0.10;;;9.40;99.90;;;9.51;98.39;98525.13;4976976;28;20310;-73
2023/04/01 06:44:45;;;;;;;0.10;0.10;;;9.50;99.90;;;9.56;98.31;98535.59;4977573;28;20229;-73
2023/04/01 06:47:18;;;;;;;0.10;0.10;;;9.40;99.90;;;9.53;98.92;98539.16;4973178;28;20240;-74
2023/04/01 06:50:15;;;;;;;0.10;0.10;;;9.50;99.90;;;9.50;99.99;98544.47;4972878;28;20291;-74
2023/04/01 06:53:22;;;;;;;0.10;0.10;;;9.40;99.90;;;9.45;100.00;98562.16;4973327;28;20263;-74
2023/04/01 06:55:57;;;;;;;0.10;0.10;;;9.50;99.90;;;9.52;100.00;98566.44;4968438;28;20251;-75
2023/04/01 06:58:49;;;;;;;0.10;0.10;;;9.40;99.90;;;9.47;100.00;98573.56;4971295;28;20287;-74
2023/04/01 07:01:39;;;;;;;0.00;0.00;;;9.40;99.90;;;9.34;100.00;98589.59;4971037;28;20228;-74
2023/04/01 07:04:31;;;;;;;0.20;0.20;;;9.30;99.90;;;9.24;100.00;98605.56;4973074;28;20240;-75
2023/04/01 07:07:36;;;;;;;0.10;0.10;;;9.30;99.90;;;9.22;100.00;98611.75;4972359;28;20327;-76
2023/04/01 07:10:12;;;;;;;0.10;0.10;;;11.00;99.90;;;9.17;100.00;98622.38;4951509;28;20259;-76
2023/04/01 07:12:53;;;;;;;0.10;0.10;;;9.20;99.90;;;9.24;100.00;98623.16;4969234;28;20652;-76
2023/04/01 07:15:28;;;;;;;0.10;0.10;;;9.20;99.90;;;9.19;100.00;98625.00;4948605;28;20240;-75
2023/04/01 07:18:07;;;;;;;0.10;0.10;;;9.20;99.90;;;9.30;100.00;98634.50;4987906;28;20266;-75
2023/04/01 07:20:37;;;;;;;0.00;0.00;;;9.20;99.90;;;9.26;100.00;98634.56;4991485;28;20236;-76
2023/04/01 07:23:26;;;;;;;0.10;0.10;;;9.30;99.90;;;9.37;100.00;98642.31;4963338;28;20267;-76
2023/04/01 07:26:04;;;;;;;0.10;0.10;;;9.30;99.90;;;9.33;100.00;98643.25;4982106;28;20240;-76
2023/04/01 07:28:35;;;;;;;0.00;0.00;;;9.30;99.90;;;9.31;100.00;98635.38;4988851;28;20318;-75
2023/04/01 07:31:41;;;;;;;0.10;0.10;;;9.30;99.90;;;9.38;100.00;98646.69;4986434;28;20735;-77
2023/04/01 07:34:27;;;;;;;0.10;0.10;;;9.30;99.90;;;9.41;100.00;98644.88;4966757;28;20245;-74
2023/04/01 07:37:10;;;;;;;0.10;0.10;;;9.50;99.90;;;9.54;100.00;98648.22;4981652;28;20744;-75
2023/04/01 07:39:51;;;;;;;0.10;0.10;;;9.50;99.90;;;9.51;100.00;98643.84;4971386;28;20315;-75
2023/04/01 07:42:32;;;;;;;0.10;0.10;;;9.50;99.90;;;9.56;100.00;98660.47;4983264;28;20239;-73
2023/04/01 07:45:49;;;;;;;0.10;0.10;;;9.60;99.90;;;9.72;100.00;98665.53;4988098;28;20267;-73
2023/04/01 07:48:50;;;;;;;0.10;0.10;;;9.70;99.90;;;9.79;100.00;98662.75;4964317;28;20232;-72
2023/04/01 07:51:44;;;;;;;0.10;0.10;;;9.80;99.90;;;9.82;100.00;98668.00;4983741;28;20317;-73
2023/04/01 07:54:46;;;;;;;0.10;0.10;;;9.80;99.90;;;9.90;100.00;98668.72;4983208;28;20255;-72
2023/04/01 07:57:34;;;;;;;0.10;0.10;;;9.80;99.90;;;9.88;100.00;98686.38;4978534;28;20285;-73
2023/04/01 08:00:18;;;;;;;0.10;0.10;;;9.80;99.90;;;9.92;100.00;98689.84;4982522;28;20228;-73
2023/04/01 08:03:19;;;;;;;0.10;0.10;;;9.80;99.90;;;9.89;100.00;98706.59;4964991;28;20255;-72
2023/04/01 08:06:15;;;;;;;0.10;0.10;;;9.80;99.90;;;9.81;100.00;98716.41;4980136;28;20231;-73
2023/04/01 08:09:20;;;;;;;0.10;0.10;;;9.70;99.90;;;9.74;100.00;98720.03;4990630;23;20237;-76
2023/04/01 08:12:02;;;;;;;0.10;0.10;;;9.70;99.90;;;9.76;100.00;98730.56;4946681;28;20233;-76
2023/04/01 08:14:47;;;;;;;0.10;0.10;;;;;;;9.80;100.00;98743.69;4957673;28;20315;-77
2023/04/01 08:17:23;;;;;;;0.00;0.00;;;9.70;99.90;;;9.79;100.00;98751.63;4972020;28;20241;-74
2023/04/01 08:20:26;;;;;;;0.10;0.10;;;9.70;99.90;;;9.74;100.00;98767.53;4959186;28;20320;-79
2023/04/01 08:23:10;;;;;;;0.10;0.10;;;9.70;99.90;;;9.74;100.00;98774.59;4961212;28;20316;-80
2023/04/01 08:26:05;;;;;;;0.10;0.10;;;9.70;99.90;;;9.74;100.00;98785.16;4965177;28;20233;-77
2023/04/01 08:29:20;;;;;;;0.10;0.10;;;9.70;99.90;;;9.71;100.00;98782.56;4960458;28;20229;-76
2023/04/01 08:31:56;;;;;;;0.00;0.00;;;9.50;99.90;;;9.72;100.00;98795.72;4944200;28;20315;-78
2023/04/01 08:34:31;;;;;;;0.00;0.00;;;9.70;99.90;;;9.74;100.00;98796.56;4964731;28;20243;-78
2023/04/01 08:37:08;;;;;;;0.10;0.10;;;9.70;99.90;;;9.76;100.00;98800.06;4938962;28;20271;-78
2023/04/01 08:39:43;;;;;;;0.00;0.00;;;9.80;99.90;;;9.84;100.00;98810.53;4968634;28;20240;-79
2023/04/01 08:42:43;;;;;;;0.10;0.10;;;9.80;99.90;;;9.94;100.00;98812.13;4932289;28;20316;-77
2023/04/01 08:45:22;;;;;;;0.10;0.10;;;;;;;9.99;100.00;98812.94;4968362;28;20698;-78
2023/04/01 08:48:51;;;;;;;0.10;0.10;;;10.00;99.90;;;10.11;100.00;98818.03;4957558;28;20240;-78
2023/04/01 08:52:15;;;;;;;0.10;0.10;;;10.00;99.90;;;10.14;100.00;98814.47;4920655;28;20342;-79
2023/04/01 08:55:21;;;;;;;0.00;0.00;;;10.10;99.90;;;10.29;100.00;98806.34;4967087;28;20269;-78
2023/04/01 08:58:19;;;;;;;0.10;0.10;;;10.20;99.90;;;10.32;100.00;98816.88;4941117;28;20324;-77
2023/04/01 09:01:23;;;;;;;0.10;0.10;;;10.30;99.90;;;10.43;100.00;98806.16;4965624;28;20325;-78
2023/04/01 09:04:25;;;;;;;0.00;0.00;;;10.40;99.90;;;10.49;100.00;98812.22;4956556;28;20237;-78
2023/04/01 09:07:33;;;;;;;0.00;0.00;;;10.40;99.90;;;10.50;100.00;98790.19;4964426;28;20319;-79
2023/04/01 09:10:21;;;;;;;0.10;0.10;;;9.60;99.90;;;10.55;100.00;98793.63;4992875;23;20236;-77
2023/04/01 09:13:26;;;;;;;0.00;0.00;;;10.50;99.90;;;10.56;100.00;98789.19;4996698;28;20231;-77
2023/04/01 09:16:20;;;;;;;0.10;0.10;;;10.50;99.90;;;10.59;100.00;98789.16;4990315;28;20274;-79
2023/04/01 09:19:10;;;;;;;0.10;0.10;;;10.50;99.90;;;10.65;100.00;98799.63;4971581;28;20236;-78
2023/04/01 09:21:47;;;;;;;0.00;0.00;;;;;;;10.73;100.00;98804.78;4958501;28;20300;-78
2023/04/01 09:24:33;;;;;;;0.10;0.10;;;;;;;10.75;100.00;98793.28;4986186;28;20346;-75
2023/04/01 09:27:24;;;;;;;0.00;0.00;;;10.70;99.90;;;10.88;100.00;98815.06;4984194;28;20308;-74
2023/04/01 09:30:48;;;;;;;0.10;0.10;;;10.80;99.90;;;10.96;100.00;98804.34;4990611;28;20235;-74
2023/04/01 09:34:08;;;;;;;0.10;0.10;;;10.90;99.90;;;10.98;100.00;98776.97;4973704;28;20320;-74
2023/04/01 09:36:35;;;;;;;0.00;0.00;;;;;;;11.00;100.00;98788.41;4975706;28;20241;-75
2023/04/01 09:39:37;;;;;;;0.10;0.10;;;11.00;99.90;;;11.07;100.00;98794.44;4985131;28;20255;-74
2023/04/01 09:42:07;;;;;;;0.10;0.10;;;;;;;11.06;100.00;98787.41;4987052;28;20271;-75
2023/04/01 09:44:44;;;;;;;0.00;0.00;;;11.00;99.90;;;11.11;100.00;98789.06;4983216;28;20236;-75
2023/04/01 09:48:22;;;;;;;0.00;0.00;;;11.00;99.90;;;11.19;100.00;98786.28;4963714;28;20240;-75
2023/04/01 09:51:05;;;;;;;0.10;0.10;;;;;;;11.22;100.00;98783.56;4909237;29;20655;-75
2023/04/01 09:53:47;;;;;;;0.10;0.10;;;11.20;99.90;;;11.29;100.00;98801.06;4910294;29;20239;-74
2023/04/01 09:56:53;;;;;;;0.10;0.10;;;11.30;99.90;;;11.27;100.00;98787.00;4959297;28;20233;-74
2023/04/01 09:59:38;;;;;;;0.10;0.10;;;11.20;99.90;;;11.38;100.00;98792.06;4971410;28;20327;-73
2023/04/01 10:02:40;;;;;;;0.00;0.00;;;11.30;99.90;;;11.38;99.91;98803.53;4988926;28;20290;-74
2023/04/01 10:05:17;;;;;;;0.10;0.10;;;11.30;99.90;;;11.43;99.73;98803.44;4984954;28;20263;-74
2023/04/01 10:08:07;;;;;;;0.10;0.10;;;11.30;99.90;;;11.40;99.17;98793.78;4987419;28;20263;-74
2023/04/01 10:11:20;;;;;;;0.10;0.10;;;11.30;99.90;;;11.45;99.00;98793.69;4989692;23;20591;-79
2023/04/01 10:14:35;;;;;;;0.10;0.10;;;11.30;99.90;;;11.42;99.51;98801.69;4959611;28;20237;-79
2023/04/01 10:17:40;;;;;;;0.10;0.10;;;11.30;99.90;;;11.49;99.02;98800.66;4950711;28;20329;-79
2023/04/01 10:20:48;;;;;;;0.00;0.00;;;11.40;99.90;;;11.58;100.00;98826.06;4968109;28;20240;-79
2023/04/01 10:23:19;;;;;;;0.10;0.10;;;;;;;11.61;99.50;98820.69;4968549;28;20309;-78
2023/04/01 10:26:18;;;;;;;0.00;0.00;;;11.50;99.90;;;11.66;99.34;98814.41;4966801;28;20236;-77
2023/04/01 10:29:02;;;;;;;0.00;0.00;;;11.50;99.90;;;11.59;98.89;98818.09;4969547;28;20233;-76
2023/04/01 10:32:08;;;;;;;0.10;0.10;;;11.50;99.90;;;11.62;98.70;98820.66;4969911;28;20248;-76
2023/04/01 10:35:34;;;;;;;0.00;0.00;;;11.60;99.90;;;11.65;98.59;98823.25;4949474;28;20263;-77
2023/04/01 10:38:55;;;;;;;0.00;0.00;;;11.60;99.90;;;11.73;98.07;98804.59;4965547;28;20250;-76
2023/04/01 10:41:35;;;;;;;0.00;0.00;;;11.60;99.90;;;11.71;97.16;98799.31;4928676;29;20313;-74
2023/04/01 10:44:33;;;;;;;0.00;0.00;;;11.60;99.90;;;11.77;96.67;98796.56;4930994;29;20233;-78
2023/04/01 10:47:18;;;;;;;0.10;0.10;;;11.80;99.90;;;11.90;96.57;98810.41;4978792;28;20232;-78
2023/04/01 10:50:04;;;;;;;0.10;0.10;;;11.80;99.90;;;11.94;96.29;98800.63;4969327;28;20237;-78
2023/04/01 10:53:15;;;;;;;0.10;0.10;;;11.80;99.90;;;11.92;97.01;98808.59;4967826;28;20240;-76
2023/04/01 10:56:04;;;;;;;0.00;0.00;;;11.70;99.90;;;11.81;96.22;98802.69;4970866;28;20241;-77
2023/04/01 10:59:08;;;;;;;0.00;0.00;;;11.70;99.90;;;11.84;96.43;98806.13;4970600;28;20240;-78
2023/04/01 11:01:58;;;;;;;0.00;0.00;;;11.70;99.90;;;11.84;97.11;98814.06;4970777;28;20249;-78
2023/04/01 11:05:24;;;;;;;0.10;0.10;;;11.60;99.90;;;11.89;96.83;98815.75;4959881;28;20232;-78
2023/04/01 11:07:54;;;;;;;0.10;0.10;;;;;;;11.84;96.29;98807.91;4970601;28;20233;-76
2023/04/01 11:11:11;;;;;;;0.10;0.10;;;11.80;99.90;;;11.88;96.22;98811.38;4967896;28;20233;-77
2023/04/01 11:13:56;;;;;;;0.10;0.10;;;11.70;99.90;;;11.81;94.49;98787.66;4964911;28;20241;-80
2023/04/01 11:17:09;;;;;;;0.10;0.10;;;11.70;99.90;;;11.78;95.82;98813.34;4948416;28;20249;-78
2023/04/01 11:20:06;;;;;;;0.10;0.10;;;11.60;99.90;;;11.74;95.88;98807.22;4972053;28;20260;-75
2023/04/01 11:22:54;;;;;;;0.10;0.10;;;;;;;11.72;96.23;98821.38;4968869;28;20232;-75
2023/04/01 11:25:43;;;;;;;0.10;0.10;;;11.50;99.90;;;11.55;95.97;98827.00;4946444;28;20264;-78
2023/04/01 11:28:26;;;;;;;0.00;0.00;;;11.50;99.90;;;11.59;96.36;98838.41;4968084;28;20240;-77
2023/04/01 11:31:23;;;;;;;0.00;0.00;;;11.40;99.90;;;11.51;96.06;98818.25;4956709;28;20248;-76
2023/04/01 11:34:32;;;;;;;0.00;0.00;;;11.50;99.90;;;11.62;95.67;98823.31;4962020;28;20288;-75
2023/04/01 11:37:09;;;;;;;0.10;0.10;;;;;;;11.61;94.88;98812.75;4936412;28;20241;-76
2023/04/01 11:40:26;;;;;;;0.10;0.10;;;11.60;99.90;;;11.72;95.60;98822.25;4942060;28;20236;-76
2023/04/01 11:43:29;;;;;;;0.10;0.10;;;;;;;11.78;95.21;98819.50;4970101;28;20249;-79
2023/04/01 11:46:10;;;;;;;0.10;0.10;;;11.70;99.90;;;11.82;93.93;98815.88;4948140;28;20295;-77
2023/04/01 11:49:23;;;;;;;0.00;0.00;;;11.70;99.90;;;11.90;93.69;98817.50;4967379;28;20233;-75
2023/04/01 11:52:37;;;;;;;0.10;0.10;;;11.80;99.90;;;11.87;93.22;98806.97;4958176;28;20237;-75